sensor_id;sensor_type;location;lat;lon;timestamp;pressure;altitude;pressure_sealevel;temperature
74750;BMP280;63269;53.330;-6.288;2023-05-10T00:01:03;100824.88;;;22.38
74750;BMP280;63269;53.330;-6.288;2023-05-10T00:03:29;100820.72;;;22.37
74750;BMP280;63269;53.330;-6.288;2023-05-10T00:05:54;100821.91;;;22.36
74750;BMP280;63269;53.330;-6.288;2023-05-10T00:08:19;100831.41;;;22.37
74750;BMP280;63269;53.330;-6.288;2023-05-10T00:10:45;100823.06;;;22.35
74750;BMP280;63269;53.330;-6.288;2023-05-10T00:13:10;100825.75;;;22.35
74750;BMP280;63269;53.330;-6.288;2023-05-10T00:15:36;100828.13;;;22.33
74750;BMP280;63269;53.330;-6.288;2023-05-10T00:18:01;100827.81;;;22.31
74750;BMP280;63269;53.330;-6.288;2023-05-10T00:20:27;100828.28;;;22.30
74750;BMP280;63269;53.330;-6.288;2023-05-10T00:22:52;100829.03;;;22.30
74750;BMP280;63269;53.330;-6.288;2023-05-10T00:25:17;100824.84;;;22.29
74750;BMP280;63269;53.330;-6.288;2023-05-10T00:27:43;100827.97;;;22.28
74750;BMP280;63269;53.330;-6.288;2023-05-10T00:30:08;100835.97;;;22.28
74750;BMP280;63269;53.330;-6.288;2023-05-10T00:32:34;100831.09;;;22.26
74750;BMP280;63269;53.330;-6.288;2023-05-10T00:34:59;100833.78;;;22.26
74750;BMP280;63269;53.330;-6.288;2023-05-10T00:37:25;100832.25;;;22.25
74750;BMP280;63269;53.330;-6.288;2023-05-10T00:39:50;100838.03;;;22.23
74750;BMP280;63269;53.330;-6.288;2023-05-10T00:42:16;100829.28;;;22.23
74750;BMP280;63269;53.330;-6.288;2023-05-10T00:44:41;100826.63;;;22.23
74750;BMP280;63269;53.330;-6.288;2023-05-10T00:47:07;100836.56;;;22.22
74750;BMP280;63269;53.330;-6.288;2023-05-10T00:49:33;100833.16;;;22.22
74750;BMP280;63269;53.330;-6.288;2023-05-10T00:51:58;100828.97;;;22.21
74750;BMP280;63269;53.330;-6.288;2023-05-10T00:54:24;100831.66;;;22.21
74750;BMP280;63269;53.330;-6.288;2023-05-10T00:56:50;100829.41;;;22.19
74750;BMP280;63269;53.330;-6.288;2023-05-10T00:59:16;100827.94;;;22.18
74750;BMP280;63269;53.330;-6.288;2023-05-10T01:01:44;100830.59;;;22.18
74750;BMP280;63269;53.330;-6.288;2023-05-10T01:04:11;100825.25;;;22.18
74750;BMP280;63269;53.330;-6.288;2023-05-10T01:06:38;100831.81;;;22.17
74750;BMP280;63269;53.330;-6.288;2023-05-10T01:09:03;100829.53;;;22.16
74750;BMP280;63269;53.330;-6.288;2023-05-10T01:11:29;100827.63;;;22.16
74750;BMP280;63269;53.330;-6.288;2023-05-10T01:13:56;100832.22;;;22.16
74750;BMP280;63269;53.330;-6.288;2023-05-10T01:16:23;100828.81;;;22.15
74750;BMP280;63269;53.330;-6.288;2023-05-10T01:18:49;100830.00;;;22.14
74750;BMP280;63269;53.330;-6.288;2023-05-10T01:29:24;100824.34;;;22.12
74750;BMP280;63269;53.330;-6.288;2023-05-10T01:37:21;100822.09;;;22.11
74750;BMP280;63269;53.330;-6.288;2023-05-10T01:39:51;100828.66;;;22.10
74750;BMP280;63269;53.330;-6.288;2023-05-10T01:42:23;100818.41;;;22.08
74750;BMP280;63269;53.330;-6.288;2023-05-10T01:45:02;100834.72;;;22.10
74750;BMP280;63269;53.330;-6.288;2023-05-10T01:50:02;100821.81;;;22.09
74750;BMP280;63269;53.330;-6.288;2023-05-10T01:52:36;100814.22;;;22.07
74750;BMP280;63269;53.330;-6.288;2023-05-10T01:55:09;100818.84;;;22.07
74750;BMP280;63269;53.330;-6.288;2023-05-10T01:57:39;100821.53;;;22.07
74750;BMP280;63269;53.330;-6.288;2023-05-10T02:00:06;100815.44;;;22.06
74750;BMP280;63269;53.330;-6.288;2023-05-10T02:02:37;100821.94;;;22.05
74750;BMP280;63269;53.330;-6.288;2023-05-10T02:05:05;100807.84;;;22.05
74750;BMP280;63269;53.330;-6.288;2023-05-10T02:07:33;100815.09;;;22.04
74750;BMP280;63269;53.330;-6.288;2023-05-10T02:10:03;100815.09;;;22.04
74750;BMP280;63269;53.330;-6.288;2023-05-10T02:12:31;100814.38;;;22.03
74750;BMP280;63269;53.330;-6.288;2023-05-10T02:14:59;100810.94;;;22.03
74750;BMP280;63269;53.330;-6.288;2023-05-10T02:17:26;100818.25;;;22.02
74750;BMP280;63269;53.330;-6.288;2023-05-10T02:19:53;100818.25;;;22.02
74750;BMP280;63269;53.330;-6.288;2023-05-10T02:22:20;100811.41;;;22.01
74750;BMP280;63269;53.330;-6.288;2023-05-10T02:24:47;100810.66;;;22.01
74750;BMP280;63269;53.330;-6.288;2023-05-10T02:27:14;100816.00;;;22.01
74750;BMP280;63269;53.330;-6.288;2023-05-10T02:29:41;100814.50;;;22.00
74750;BMP280;63269;53.330;-6.288;2023-05-10T02:32:06;100822.50;;;22.00
74750;BMP280;63269;53.330;-6.288;2023-05-10T02:34:35;100823.28;;;22.00
74750;BMP280;63269;53.330;-6.288;2023-05-10T02:37:02;100813.03;;;21.99
74750;BMP280;63269;53.330;-6.288;2023-05-10T02:39:29;100818.38;;;21.99
74750;BMP280;63269;53.330;-6.288;2023-05-10T02:41:56;100819.56;;;21.98
74750;BMP280;63269;53.330;-6.288;2023-05-10T02:44:23;100813.03;;;21.99
74750;BMP280;63269;53.330;-6.288;2023-05-10T02:46:50;100818.78;;;21.97
74750;BMP280;63269;53.330;-6.288;2023-05-10T02:49:15;100825.34;;;21.96
74750;BMP280;63269;53.330;-6.288;2023-05-10T02:51:44;100822.66;;;21.96
74750;BMP280;63269;53.330;-6.288;2023-05-10T02:54:20;100830.25;;;21.98
74750;BMP280;63269;53.330;-6.288;2023-05-10T02:56:51;100824.56;;;21.96
74750;BMP280;63269;53.330;-6.288;2023-05-10T02:59:17;100822.66;;;21.96
74750;BMP280;63269;53.330;-6.288;2023-05-10T03:01:43;100819.22;;;21.96
74750;BMP280;63269;53.330;-6.288;2023-05-10T03:04:08;100818.94;;;21.94
74750;BMP280;63269;53.330;-6.288;2023-05-10T03:06:34;100818.19;;;21.93
74750;BMP280;63269;53.330;-6.288;2023-05-10T03:08:59;100825.75;;;21.95
74750;BMP280;63269;53.330;-6.288;2023-05-10T03:14:26;100815.53;;;21.93
74750;BMP280;63269;53.330;-6.288;2023-05-10T03:16:56;100814.50;;;21.91
74750;BMP280;63269;53.330;-6.288;2023-05-10T03:22:08;100822.50;;;21.91
74750;BMP280;63269;53.330;-6.288;2023-05-10T03:24:35;100817.88;;;21.91
74750;BMP280;63269;53.330;-6.288;2023-05-10T03:27:02;100825.19;;;21.91
74750;BMP280;63269;53.330;-6.288;2023-05-10T03:29:29;100822.50;;;21.91
74750;BMP280;63269;53.330;-6.288;2023-05-10T03:31:58;100814.50;;;21.91
74750;BMP280;63269;53.330;-6.288;2023-05-10T03:34:24;100810.31;;;21.90
74750;BMP280;63269;53.330;-6.288;2023-05-10T03:36:50;100814.91;;;21.89
74750;BMP280;63269;53.330;-6.288;2023-05-10T03:39:15;100814.91;;;21.89
74750;BMP280;63269;53.330;-6.288;2023-05-10T03:41:40;100817.59;;;21.89
74750;BMP280;63269;53.330;-6.288;2023-05-10T03:44:06;100804.97;;;21.90
74750;BMP280;63269;53.330;-6.288;2023-05-10T03:46:31;100808.81;;;21.89
74750;BMP280;63269;53.330;-6.288;2023-05-10T03:48:57;100804.22;;;21.89
74750;BMP280;63269;53.330;-6.288;2023-05-10T03:51:22;100810.75;;;21.88
74750;BMP280;63269;53.330;-6.288;2023-05-10T03:53:49;100810.75;;;21.88
74750;BMP280;63269;53.330;-6.288;2023-05-10T03:56:14;100812.69;;;21.88
74750;BMP280;63269;53.330;-6.288;2023-05-10T03:58:40;100810.75;;;21.88
74750;BMP280;63269;53.330;-6.288;2023-05-10T04:01:05;100808.06;;;21.88
74750;BMP280;63269;53.330;-6.288;2023-05-10T04:03:31;100818.03;;;21.88
74750;BMP280;63269;53.330;-6.288;2023-05-10T04:06:00;100814.59;;;21.87
74750;BMP280;63269;53.330;-6.288;2023-05-10T04:08:26;100815.34;;;21.88
74750;BMP280;63269;53.330;-6.288;2023-05-10T04:10:51;100819.94;;;21.87
74750;BMP280;63269;53.330;-6.288;2023-05-10T04:13:17;100809.25;;;21.87
74750;BMP280;63269;53.330;-6.288;2023-05-10T04:15:42;100812.69;;;21.88
74750;BMP280;63269;53.330;-6.288;2023-05-10T04:18:08;100817.25;;;21.87
74750;BMP280;63269;53.330;-6.288;2023-05-10T04:20:33;100803.16;;;21.87
74750;BMP280;63269;53.330;-6.288;2023-05-10T04:22:59;100814.59;;;21.87
74750;BMP280;63269;53.330;-6.288;2023-05-10T04:25:24;100816.50;;;21.87
74750;BMP280;63269;53.330;-6.288;2023-05-10T04:27:50;100810.44;;;21.86
74750;BMP280;63269;53.330;-6.288;2023-05-10T04:30:15;100813.84;;;21.87
74750;BMP280;63269;53.330;-6.288;2023-05-10T04:32:41;100810.44;;;21.86
74750;BMP280;63269;53.330;-6.288;2023-05-10T04:35:06;100808.50;;;21.87
74750;BMP280;63269;53.330;-6.288;2023-05-10T04:37:32;100804.34;;;21.86
74750;BMP280;63269;53.330;-6.288;2023-05-10T04:39:57;100803.91;;;21.87
74750;BMP280;63269;53.330;-6.288;2023-05-10T04:42:25;100807.03;;;21.86
74750;BMP280;63269;53.330;-6.288;2023-05-10T04:44:50;100807.75;;;21.86
74750;BMP280;63269;53.330;-6.288;2023-05-10T04:47:17;100801.69;;;21.86
74750;BMP280;63269;53.330;-6.288;2023-05-10T04:49:42;100803.63;;;21.85
74750;BMP280;63269;53.330;-6.288;2023-05-10T04:52:08;100800.94;;;21.85
74750;BMP280;63269;53.330;-6.288;2023-05-10T04:54:33;100799.03;;;21.86
74750;BMP280;63269;53.330;-6.288;2023-05-10T04:56:59;100799.75;;;21.86
74750;BMP280;63269;53.330;-6.288;2023-05-10T04:59:25;100801.69;;;21.86
74750;BMP280;63269;53.330;-6.288;2023-05-10T05:01:50;100804.34;;;21.86
74750;BMP280;63269;53.330;-6.288;2023-05-10T05:04:16;100799.75;;;21.86
74750;BMP280;63269;53.330;-6.288;2023-05-10T05:06:41;100801.69;;;21.86
74750;BMP280;63269;53.330;-6.288;2023-05-10T05:09:07;100800.19;;;21.85
74750;BMP280;63269;53.330;-6.288;2023-05-10T05:11:32;100800.19;;;21.85
74750;BMP280;63269;53.330;-6.288;2023-05-10T05:13:58;100805.53;;;21.85
74750;BMP280;63269;53.330;-6.288;2023-05-10T05:16:24;100810.13;;;21.84
74750;BMP280;63269;53.330;-6.288;2023-05-10T05:18:49;100801.38;;;21.84
74750;BMP280;63269;53.330;-6.288;2023-05-10T05:21:16;100804.78;;;21.84
74750;BMP280;63269;53.330;-6.288;2023-05-10T05:23:42;100803.63;;;21.85
74750;BMP280;63269;53.330;-6.288;2023-05-10T05:26:07;100807.47;;;21.84
74750;BMP280;63269;53.330;-6.288;2023-05-10T05:28:32;100809.38;;;21.84
74750;BMP280;63269;53.330;-6.288;2023-05-10T05:31:02;100809.84;;;21.82
74750;BMP280;63269;53.330;-6.288;2023-05-10T05:33:28;100812.53;;;21.82
74750;BMP280;63269;53.330;-6.288;2023-05-10T05:35:53;100813.25;;;21.83
74750;BMP280;63269;53.330;-6.288;2023-05-10T05:38:18;100813.25;;;21.83
74750;BMP280;63269;53.330;-6.288;2023-05-10T05:40:45;100816.63;;;21.83
74750;BMP280;63269;53.330;-6.288;2023-05-10T05:43:10;100821.28;;;21.83
74750;BMP280;63269;53.330;-6.288;2023-05-10T05:45:36;100815.94;;;21.83
74750;BMP280;63269;53.330;-6.288;2023-05-10T05:48:01;100821.97;;;21.83
74750;BMP280;63269;53.330;-6.288;2023-05-10T05:50:27;100827.78;;;21.81
74750;BMP280;63269;53.330;-6.288;2023-05-10T05:52:52;100821.97;;;21.83
74750;BMP280;63269;53.330;-6.288;2023-05-10T05:55:18;100825.88;;;21.82
74750;BMP280;63269;53.330;-6.288;2023-05-10T05:57:43;100819.75;;;21.81
74750;BMP280;63269;53.330;-6.288;2023-05-10T06:00:09;100830.44;;;21.81
74750;BMP280;63269;53.330;-6.288;2023-05-10T06:02:34;100825.09;;;21.81
74750;BMP280;63269;53.330;-6.288;2023-05-10T06:05:00;100823.19;;;21.82
74750;BMP280;63269;53.330;-6.288;2023-05-10T06:07:25;100825.88;;;21.82
74750;BMP280;63269;53.330;-6.288;2023-05-10T06:09:51;100829.28;;;21.83
74750;BMP280;63269;53.330;-6.288;2023-05-10T06:12:16;100823.47;;;21.84
74750;BMP280;63269;53.330;-6.288;2023-05-10T06:14:41;100820.38;;;21.86
74750;BMP280;63269;53.330;-6.288;2023-05-10T06:17:07;100822.94;;;21.89
74750;BMP280;63269;53.330;-6.288;2023-05-10T06:19:32;100823.94;;;21.92
74750;BMP280;63269;53.330;-6.288;2023-05-10T06:21:58;100822.66;;;21.96
74750;BMP280;63269;53.330;-6.288;2023-05-10T06:24:23;100835.13;;;21.99
74750;BMP280;63269;53.330;-6.288;2023-05-10T06:26:48;100833.53;;;22.02
74750;BMP280;63269;53.330;-6.288;2023-05-10T06:29:15;100847.50;;;22.06
74750;BMP280;63269;53.330;-6.288;2023-05-10T06:31:40;100835.16;;;22.09
74750;BMP280;63269;53.330;-6.288;2023-05-10T06:34:06;100847.66;;;22.12
74750;BMP280;63269;53.330;-6.288;2023-05-10T06:36:33;100845.56;;;22.16
74750;BMP280;63269;53.330;-6.288;2023-05-10T06:38:58;100863.41;;;22.19
74750;BMP280;63269;53.330;-6.288;2023-05-10T06:41:24;100849.19;;;22.22
74750;BMP280;63269;53.330;-6.288;2023-05-10T06:43:49;100845.31;;;22.23
74750;BMP280;63269;53.330;-6.288;2023-05-10T06:46:15;100854.38;;;22.26
74750;BMP280;63269;53.330;-6.288;2023-05-10T06:48:40;100850.06;;;22.28
74750;BMP280;63269;53.330;-6.288;2023-05-10T06:51:06;100852.31;;;22.30
74750;BMP280;63269;53.330;-6.288;2023-05-10T06:53:31;100854.09;;;22.33
74750;BMP280;63269;53.330;-6.288;2023-05-10T06:55:57;100852.94;;;22.34
74750;BMP280;63269;53.330;-6.288;2023-05-10T06:58:22;100856.94;;;22.38
74750;BMP280;63269;53.330;-6.288;2023-05-10T07:00:48;100863.78;;;22.39
74750;BMP280;63269;53.330;-6.288;2023-05-10T07:03:13;100858.75;;;22.41
74750;BMP280;63269;53.330;-6.288;2023-05-10T07:05:39;100869.00;;;22.43
74750;BMP280;63269;53.330;-6.288;2023-05-10T07:08:04;100867.34;;;22.46
74750;BMP280;63269;53.330;-6.288;2023-05-10T07:10:30;100870.34;;;22.48
74750;BMP280;63269;53.330;-6.288;2023-05-10T07:12:55;100864.56;;;22.49
74750;BMP280;63269;53.330;-6.288;2023-05-10T07:15:20;100868.28;;;22.52
74750;BMP280;63269;53.330;-6.288;2023-05-10T07:17:46;100872.44;;;22.53
74750;BMP280;63269;53.330;-6.288;2023-05-10T07:20:12;100867.38;;;22.55
74750;BMP280;63269;53.330;-6.288;2023-05-10T07:22:37;100871.13;;;22.57
74750;BMP280;63269;53.330;-6.288;2023-05-10T07:25:03;100871.84;;;22.58
74750;BMP280;63269;53.330;-6.288;2023-05-10T07:27:28;100870.97;;;22.61
74750;BMP280;63269;53.330;-6.288;2023-05-10T07:29:54;100870.50;;;22.62
74750;BMP280;63269;53.330;-6.288;2023-05-10T07:32:20;100872.00;;;22.63
74750;BMP280;63269;53.330;-6.288;2023-05-10T07:34:45;100877.69;;;22.66
74750;BMP280;63269;53.330;-6.288;2023-05-10T07:37:11;100871.09;;;22.67
74750;BMP280;63269;53.330;-6.288;2023-05-10T07:39:36;100871.44;;;22.69
74750;BMP280;63269;53.330;-6.288;2023-05-10T07:42:02;100864.47;;;22.71
74750;BMP280;63269;53.330;-6.288;2023-05-10T07:44:28;100870.53;;;22.72
74750;BMP280;63269;53.330;-6.288;2023-05-10T07:46:53;100867.44;;;22.73
74750;BMP280;63269;53.330;-6.288;2023-05-10T07:49:19;100859.72;;;22.75
74750;BMP280;63269;53.330;-6.288;2023-05-10T07:51:44;100876.06;;;22.77
74750;BMP280;63269;53.330;-6.288;2023-05-10T07:54:10;100871.00;;;22.79
74750;BMP280;63269;53.330;-6.288;2023-05-10T07:56:35;100869.09;;;22.80
74750;BMP280;63269;53.330;-6.288;2023-05-10T07:59:02;100872.03;;;22.82
74750;BMP280;63269;53.330;-6.288;2023-05-10T08:01:33;100867.00;;;22.84
74750;BMP280;63269;53.330;-6.288;2023-05-10T08:03:58;100886.47;;;22.84
74750;BMP280;63269;53.330;-6.288;2023-05-10T08:06:24;100877.25;;;22.85
74750;BMP280;63269;53.330;-6.288;2023-05-10T08:08:51;100872.19;;;22.88
74750;BMP280;63269;53.330;-6.288;2023-05-10T08:11:19;100871.03;;;22.89
74750;BMP280;63269;53.330;-6.288;2023-05-10T08:13:46;100876.38;;;22.89
74750;BMP280;63269;53.330;-6.288;2023-05-10T08:16:12;100878.31;;;22.88
74750;BMP280;63269;53.330;-6.288;2023-05-10T08:18:38;100879.06;;;22.89
74750;BMP280;63269;53.330;-6.288;2023-05-10T08:21:04;100877.13;;;22.89
74750;BMP280;63269;53.330;-6.288;2023-05-10T08:23:29;100879.78;;;22.89
74750;BMP280;63269;53.330;-6.288;2023-05-10T08:25:55;100876.38;;;22.89
74750;BMP280;63269;53.330;-6.288;2023-05-10T08:28:20;100882.91;;;22.88
74750;BMP280;63269;53.330;-6.288;2023-05-10T08:30:46;100885.56;;;22.88
74750;BMP280;63269;53.330;-6.288;2023-05-10T08:33:11;100870.69;;;22.86
74750;BMP280;63269;53.330;-6.288;2023-05-10T08:35:37;100877.25;;;22.85
74750;BMP280;63269;53.330;-6.288;2023-05-10T08:38:02;100878.44;;;22.84
74750;BMP280;63269;53.330;-6.288;2023-05-10T08:40:27;100873.84;;;22.85
74750;BMP280;63269;53.330;-6.288;2023-05-10T08:43:19;100875.47;;;22.82
74750;BMP280;63269;53.330;-6.288;2023-05-10T08:45:45;100881.25;;;22.81
74750;BMP280;63269;53.330;-6.288;2023-05-10T08:48:12;100886.59;;;22.81
74750;BMP280;63269;53.330;-6.288;2023-05-10T08:50:39;100884.38;;;22.79
74750;BMP280;63269;53.330;-6.288;2023-05-10T08:53:09;100884.78;;;22.78
74750;BMP280;63269;53.330;-6.288;2023-05-10T08:55:35;100881.84;;;22.76
74750;BMP280;63269;53.330;-6.288;2023-05-10T08:58:04;100893.28;;;22.76
74750;BMP280;63269;53.330;-6.288;2023-05-10T09:00:29;100892.97;;;22.74
74750;BMP280;63269;53.330;-6.288;2023-05-10T09:02:57;100898.31;;;22.74
74750;BMP280;63269;53.330;-6.288;2023-05-10T09:05:23;100901.47;;;22.73
74750;BMP280;63269;53.330;-6.288;2023-05-10T09:07:48;100899.22;;;22.71
74750;BMP280;63269;53.330;-6.288;2023-05-10T09:10:14;100896.53;;;22.71
74750;BMP280;63269;53.330;-6.288;2023-05-10T09:12:40;100896.25;;;22.69
74750;BMP280;63269;53.330;-6.288;2023-05-10T09:15:07;100889.41;;;22.68
74750;BMP280;63269;53.330;-6.288;2023-05-10T09:17:34;100884.47;;;22.67
74750;BMP280;63269;53.330;-6.288;2023-05-10T09:20:01;100889.81;;;22.67
74750;BMP280;63269;53.330;-6.288;2023-05-10T09:22:27;100890.28;;;22.65
74750;BMP280;63269;53.330;-6.288;2023-05-10T09:27:30;100887.31;;;22.63
74750;BMP280;63269;53.330;-6.288;2023-05-10T09:29:56;100889.97;;;22.63
74750;BMP280;63269;53.330;-6.288;2023-05-10T09:32:38;100891.88;;;22.62
74750;BMP280;63269;53.330;-6.288;2023-05-10T09:35:16;100888.94;;;22.60
74750;BMP280;63269;53.330;-6.288;2023-05-10T09:37:46;100896.97;;;22.60
74750;BMP280;63269;53.330;-6.288;2023-05-10T09:40:17;100884.03;;;22.59
74750;BMP280;63269;53.330;-6.288;2023-05-10T09:43:00;100895.91;;;22.58
74750;BMP280;63269;53.330;-6.288;2023-05-10T09:45:30;100900.53;;;22.57
74750;BMP280;63269;53.330;-6.288;2023-05-10T09:47:56;100897.84;;;22.57
74750;BMP280;63269;53.330;-6.288;2023-05-10T09:50:23;100912.41;;;22.56
74750;BMP280;63269;53.330;-6.288;2023-05-10T09:55:15;100903.31;;;22.54
74750;BMP280;63269;53.330;-6.288;2023-05-10T09:57:40;100902.59;;;22.53
74750;BMP280;63269;53.330;-6.288;2023-05-10T10:00:07;100919.81;;;22.52
74750;BMP280;63269;53.330;-6.288;2023-05-10T10:02:32;100901.84;;;22.53
74750;BMP280;63269;53.330;-6.288;2023-05-10T10:05:00;100908.38;;;22.52
74750;BMP280;63269;53.330;-6.288;2023-05-10T10:07:26;100915.63;;;22.51
74750;BMP280;63269;53.330;-6.288;2023-05-10T10:09:52;100912.22;;;22.51
74750;BMP280;63269;53.330;-6.288;2023-05-10T10:12:19;100918.75;;;22.50
74750;BMP280;63269;53.330;-6.288;2023-05-10T10:14:46;100918.75;;;22.50
74750;BMP280;63269;53.330;-6.288;2023-05-10T10:17:12;100915.78;;;22.48
74750;BMP280;63269;53.330;-6.288;2023-05-10T10:19:38;100917.72;;;22.47
74750;BMP280;63269;53.330;-6.288;2023-05-10T10:22:04;100907.75;;;22.48
74750;BMP280;63269;53.330;-6.288;2023-05-10T10:24:30;100912.38;;;22.47
74750;BMP280;63269;53.330;-6.288;2023-05-10T10:27:01;100910.88;;;22.46
74750;BMP280;63269;53.330;-6.288;2023-05-10T10:29:41;100902.88;;;22.46
74750;BMP280;63269;53.330;-6.288;2023-05-10T10:32:19;100898.69;;;22.45
74750;BMP280;63269;53.330;-6.288;2023-05-10T10:34:47;100902.88;;;22.46
74750;BMP280;63269;53.330;-6.288;2023-05-10T10:37:13;100912.06;;;22.45
74750;BMP280;63269;53.330;-6.288;2023-05-10T10:39:38;100899.88;;;22.44
74750;BMP280;63269;53.330;-6.288;2023-05-10T10:42:04;100915.91;;;22.44
74750;BMP280;63269;53.330;-6.288;2023-05-10T10:49:24;100909.09;;;22.43
74750;BMP280;63269;53.330;-6.288;2023-05-10T10:57:26;100897.34;;;22.40
74750;BMP280;63269;53.330;-6.288;2023-05-10T11:02:56;100900.44;;;22.39
74750;BMP280;63269;53.330;-6.288;2023-05-10T11:07:55;100901.19;;;22.39
74750;BMP280;63269;53.330;-6.288;2023-05-10T11:10:24;100911.13;;;22.39
74750;BMP280;63269;53.330;-6.288;2023-05-10T11:12:59;100916.50;;;22.39
74750;BMP280;63269;53.330;-6.288;2023-05-10T11:15:37;100902.38;;;22.38
74750;BMP280;63269;53.330;-6.288;2023-05-10T11:21:02;100898.66;;;22.36
74750;BMP280;63269;53.330;-6.288;2023-05-10T11:23:49;100907.44;;;22.36
74750;BMP280;63269;53.330;-6.288;2023-05-10T11:26:14;100901.03;;;22.34
74750;BMP280;63269;53.330;-6.288;2023-05-10T11:28:44;100895.69;;;22.34
74750;BMP280;63269;53.330;-6.288;2023-05-10T11:31:13;100909.06;;;22.34
74750;BMP280;63269;53.330;-6.288;2023-05-10T11:33:48;100893.78;;;22.34
74750;BMP280;63269;53.330;-6.288;2023-05-10T11:36:19;100899.53;;;22.33
74750;BMP280;63269;53.330;-6.288;2023-05-10T11:38:45;100893.00;;;22.34
74750;BMP280;63269;53.330;-6.288;2023-05-10T11:41:11;100896.13;;;22.32
74750;BMP280;63269;53.330;-6.288;2023-05-10T11:43:39;100893.44;;;22.32
74750;BMP280;63269;53.330;-6.288;2023-05-10T11:46:06;100892.72;;;22.32
74750;BMP280;63269;53.330;-6.288;2023-05-10T11:48:31;100912.59;;;22.31
74750;BMP280;63269;53.330;-6.288;2023-05-10T11:50:57;100890.50;;;22.30
74750;BMP280;63269;53.330;-6.288;2023-05-10T11:53:25;100893.16;;;22.30
74750;BMP280;63269;53.330;-6.288;2023-05-10T11:55:50;100901.19;;;22.30
74750;BMP280;63269;53.330;-6.288;2023-05-10T11:58:17;100919.91;;;22.30
74750;BMP280;63269;53.330;-6.288;2023-05-10T12:00:43;100916.44;;;22.30
74750;BMP280;63269;53.330;-6.288;2023-05-10T12:03:08;100929.81;;;22.30
74750;BMP280;63269;53.330;-6.288;2023-05-10T12:05:35;100913.78;;;22.30
74750;BMP280;63269;53.330;-6.288;2023-05-10T12:08:11;100911.09;;;22.30
74750;BMP280;63269;53.330;-6.288;2023-05-10T12:10:37;100918.81;;;22.28
74750;BMP280;63269;53.330;-6.288;2023-05-10T12:13:02;100919.56;;;22.28
74750;BMP280;63269;53.330;-6.288;2023-05-10T12:15:29;100912.00;;;22.27
74750;BMP280;63269;53.330;-6.288;2023-05-10T12:17:54;100906.66;;;22.27
74750;BMP280;63269;53.330;-6.288;2023-05-10T12:20:23;100897.91;;;22.26
74750;BMP280;63269;53.330;-6.288;2023-05-10T12:22:53;100907.34;;;22.27
74750;BMP280;63269;53.330;-6.288;2023-05-10T12:25:21;100897.44;;;22.28
74750;BMP280;63269;53.330;-6.288;2023-05-10T12:27:57;100908.59;;;22.26
74750;BMP280;63269;53.330;-6.288;2023-05-10T12:30:24;100915.09;;;22.25
74750;BMP280;63269;53.330;-6.288;2023-05-10T12:32:50;100911.69;;;22.25
74750;BMP280;63269;53.330;-6.288;2023-05-10T12:35:16;100911.69;;;22.25
74750;BMP280;63269;53.330;-6.288;2023-05-10T12:37:43;100921.59;;;22.24
74750;BMP280;63269;53.330;-6.288;2023-05-10T12:40:10;100914.38;;;22.25
74750;BMP280;63269;53.330;-6.288;2023-05-10T12:42:36;100919.69;;;22.25
74750;BMP280;63269;53.330;-6.288;2023-05-10T12:45:03;100916.25;;;22.24
74750;BMP280;63269;53.330;-6.288;2023-05-10T12:47:29;100925.06;;;22.25
74750;BMP280;63269;53.330;-6.288;2023-05-10T12:49:55;100925.47;;;22.23
74750;BMP280;63269;53.330;-6.288;2023-05-10T12:52:20;100915.53;;;22.23
74750;BMP280;63269;53.330;-6.288;2023-05-10T12:54:46;100927.41;;;22.22
74750;BMP280;63269;53.330;-6.288;2023-05-10T12:57:12;100931.25;;;22.21
74750;BMP280;63269;53.330;-6.288;2023-05-10T12:59:38;100930.09;;;22.22
74750;BMP280;63269;53.330;-6.288;2023-05-10T13:02:04;100931.25;;;22.21
74750;BMP280;63269;53.330;-6.288;2023-05-10T13:04:30;100918.66;;;22.22
74750;BMP280;63269;53.330;-6.288;2023-05-10T13:06:55;100931.25;;;22.21
74750;BMP280;63269;53.330;-6.288;2023-05-10T13:09:24;100917.16;;;22.21
74750;BMP280;63269;53.330;-6.288;2023-05-10T13:11:50;100922.50;;;22.21
74750;BMP280;63269;53.330;-6.288;2023-05-10T13:14:16;100924.44;;;22.20
74750;BMP280;63269;53.330;-6.288;2023-05-10T13:16:41;100927.84;;;22.21
74750;BMP280;63269;53.330;-6.288;2023-05-10T13:19:06;100919.53;;;22.19
74750;BMP280;63269;53.330;-6.288;2023-05-10T13:21:32;100923.66;;;22.20
74750;BMP280;63269;53.330;-6.288;2023-05-10T13:23:57;100921.00;;;22.20
74750;BMP280;63269;53.330;-6.288;2023-05-10T13:26:23;100912.97;;;22.20
74750;BMP280;63269;53.330;-6.288;2023-05-10T13:28:48;100916.84;;;22.19
74750;BMP280;63269;53.330;-6.288;2023-05-10T13:31:14;100922.19;;;22.19
74750;BMP280;63269;53.330;-6.288;2023-05-10T13:33:40;100916.84;;;22.19
74750;BMP280;63269;53.330;-6.288;2023-05-10T13:36:06;100916.41;;;22.20
74750;BMP280;63269;53.330;-6.288;2023-05-10T13:38:31;100911.50;;;22.19
74750;BMP280;63269;53.330;-6.288;2023-05-10T13:40:57;100909.56;;;22.19
74750;BMP280;63269;53.330;-6.288;2023-05-10T13:43:23;100912.25;;;22.19
74750;BMP280;63269;53.330;-6.288;2023-05-10T13:45:48;100906.16;;;22.19
74750;BMP280;63269;53.330;-6.288;2023-05-10T13:48:14;100909.56;;;22.19
74750;BMP280;63269;53.330;-6.288;2023-05-10T13:50:39;100909.56;;;22.19
74750;BMP280;63269;53.330;-6.288;2023-05-10T13:53:05;100900.50;;;22.17
74750;BMP280;63269;53.330;-6.288;2023-05-10T13:55:30;100910.03;;;22.18
74750;BMP280;63269;53.330;-6.288;2023-05-10T13:57:56;100912.69;;;22.18
74750;BMP280;63269;53.330;-6.288;2023-05-10T14:00:21;100907.34;;;22.18
74750;BMP280;63269;53.330;-6.288;2023-05-10T14:02:47;100902.00;;;22.18
74750;BMP280;63269;53.330;-6.288;2023-05-10T14:05:12;100903.94;;;22.17
74750;BMP280;63269;53.330;-6.288;2023-05-10T14:07:37;100924.13;;;22.18
74750;BMP280;63269;53.330;-6.288;2023-05-10T14:10:03;100912.69;;;22.18
74750;BMP280;63269;53.330;-6.288;2023-05-10T14:12:29;100918.03;;;22.18
74750;BMP280;63269;53.330;-6.288;2023-05-10T14:14:55;100911.97;;;22.17
74750;BMP280;63269;53.330;-6.288;2023-05-10T14:17:20;100914.63;;;22.17
74750;BMP280;63269;53.330;-6.288;2023-05-10T14:19:47;100907.03;;;22.16
74750;BMP280;63269;53.330;-6.288;2023-05-10T14:22:12;100904.69;;;22.18
74750;BMP280;63269;53.330;-6.288;2023-05-10T14:24:38;100897.09;;;22.16
74750;BMP280;63269;53.330;-6.288;2023-05-10T14:27:03;100904.34;;;22.16